sensor_id;sensor_type;location;lat;lon;timestamp;pressure;altitude;pressure_sealevel;temperature
54026;BMP280;74404;50.662;3.398;2024-03-02T00:00:21;99017.31;;;7.87
54026;BMP280;74404;50.662;3.398;2024-03-02T00:02:49;99015.75;;;7.86
54026;BMP280;74404;50.662;3.398;2024-03-02T00:05:16;99019.81;;;7.84
54026;BMP280;74404;50.662;3.398;2024-03-02T00:07:44;99020.25;;;7.77
54026;BMP280;74404;50.662;3.398;2024-03-02T00:10:11;99016.88;;;7.85
54026;BMP280;74404;50.662;3.398;2024-03-02T00:12:38;99024.31;;;7.83
54026;BMP280;74404;50.662;3.398;2024-03-02T00:18:03;99027.72;;;7.84
54026;BMP280;74404;50.662;3.398;2024-03-02T00:20:30;99021.97;;;7.81
54026;BMP280;74404;50.662;3.398;2024-03-02T00:23:22;99029.09;;;7.81
54026;BMP280;74404;50.662;3.398;2024-03-02T00:25:53;99029.41;;;7.79
54026;BMP280;74404;50.662;3.398;2024-03-02T00:28:22;99035.50;;;7.80
54026;BMP280;74404;50.662;3.398;2024-03-02T00:33:20;99024.78;;;7.76
54026;BMP280;74404;50.662;3.398;2024-03-02T00:35:49;99030.81;;;7.77
54026;BMP280;74404;50.662;3.398;2024-03-02T00:38:15;99041.06;;;7.78
54026;BMP280;74404;50.662;3.398;2024-03-02T00:40:44;99040.59;;;7.76
54026;BMP280;74404;50.662;3.398;2024-03-02T00:43:43;99044.03;;;7.77
54026;BMP280;74404;50.662;3.398;2024-03-02T00:46:14;99045.13;;;7.76
54026;BMP280;74404;50.662;3.398;2024-03-02T00:48:50;99048.88;;;7.75
54026;BMP280;74404;50.662;3.398;2024-03-02T00:51:16;99044.66;;;7.74
54026;BMP280;74404;50.662;3.398;2024-03-02T00:53:42;99045.72;;;7.73
54026;BMP280;74404;50.662;3.398;2024-03-02T00:56:10;99048.38;;;7.73
54026;BMP280;74404;50.662;3.398;2024-03-02T00:58:37;99048.38;;;7.73
54026;BMP280;74404;50.662;3.398;2024-03-02T01:01:02;99044.50;;;7.70
54026;BMP280;74404;50.662;3.398;2024-03-02T01:03:28;99047.13;;;7.70
54026;BMP280;74404;50.662;3.398;2024-03-02T01:05:54;99044.78;;;7.69
54026;BMP280;74404;50.662;3.398;2024-03-02T01:08:19;99054.25;;;7.70
54026;BMP280;74404;50.662;3.398;2024-03-02T01:10:45;99056.44;;;7.68
54026;BMP280;74404;50.662;3.398;2024-03-02T01:13:10;99059.53;;;7.70
54026;BMP280;74404;50.662;3.398;2024-03-02T01:15:35;99058.78;;;7.69
54026;BMP280;74404;50.662;3.398;2024-03-02T01:18:01;99065.16;;;7.68
54026;BMP280;74404;50.662;3.398;2024-03-02T01:20:26;99056.72;;;7.66
54026;BMP280;74404;50.662;3.398;2024-03-02T01:22:52;99061.25;;;7.66
54026;BMP280;74404;50.662;3.398;2024-03-02T01:25:18;99058.59;;;7.66
54026;BMP280;74404;50.662;3.398;2024-03-02T01:27:44;99071.03;;;7.65
54026;BMP280;74404;50.662;3.398;2024-03-02T01:30:09;99062.66;;;7.63
54026;BMP280;74404;50.662;3.398;2024-03-02T01:32:37;99067.91;;;7.63
54026;BMP280;74404;50.662;3.398;2024-03-02T01:35:04;99069.03;;;7.62
54026;BMP280;74404;50.662;3.398;2024-03-02T01:37:30;99059.53;;;7.61
54026;BMP280;74404;50.662;3.398;2024-03-02T01:39:55;99071.50;;;7.58
54026;BMP280;74404;50.662;3.398;2024-03-02T01:42:20;99070.41;;;7.59
54026;BMP280;74404;50.662;3.398;2024-03-02T01:44:46;99066.50;;;7.57
54026;BMP280;74404;50.662;3.398;2024-03-02T01:47:11;99080.97;;;7.59
54026;BMP280;74404;50.662;3.398;2024-03-02T01:49:37;99078.63;;;7.58
54026;BMP280;74404;50.662;3.398;2024-03-02T01:52:04;99072.09;;;7.55
54026;BMP280;74404;50.662;3.398;2024-03-02T01:54:29;99067.13;;;7.54
54026;BMP280;74404;50.662;3.398;2024-03-02T01:56:55;99066.34;;;7.53
54026;BMP280;74404;50.662;3.398;2024-03-02T01:59:21;99063.72;;;7.53
54026;BMP280;74404;50.662;3.398;2024-03-02T02:01:46;99058.44;;;7.53
54026;BMP280;74404;50.662;3.398;2024-03-02T02:04:12;99060.91;;;7.50
54026;BMP280;74404;50.662;3.398;2024-03-02T02:06:38;99062.47;;;7.51
54026;BMP280;74404;50.662;3.398;2024-03-02T02:09:04;99063.53;;;7.50
54026;BMP280;74404;50.662;3.398;2024-03-02T02:11:29;99057.03;;;7.47
54026;BMP280;74404;50.662;3.398;2024-03-02T02:13:55;99064.63;;;7.49
54026;BMP280;74404;50.662;3.398;2024-03-02T02:16:23;99062.31;;;7.47
54026;BMP280;74404;50.662;3.398;2024-03-02T02:18:48;99060.25;;;7.44
54026;BMP280;74404;50.662;3.398;2024-03-02T02:21:14;99055.75;;;7.45
54026;BMP280;74404;50.662;3.398;2024-03-02T02:23:39;99054.22;;;7.43
54026;BMP280;74404;50.662;3.398;2024-03-02T02:26:05;99048.94;;;7.43
54026;BMP280;74404;50.662;3.398;2024-03-02T02:28:30;99052.66;;;7.42
54026;BMP280;74404;50.662;3.398;2024-03-02T02:30:56;99051.41;;;7.40
54026;BMP280;74404;50.662;3.398;2024-03-02T02:33:22;99048.75;;;7.40
54026;BMP280;74404;50.662;3.398;2024-03-02T02:35:47;99059.31;;;7.40
54026;BMP280;74404;50.662;3.398;2024-03-02T02:38:13;99057.47;;;7.40
54026;BMP280;74404;50.662;3.398;2024-03-02T02:40:39;99051.88;;;7.42
54026;BMP280;74404;50.662;3.398;2024-03-02T02:43:04;99050.00;;;7.42
54026;BMP280;74404;50.662;3.398;2024-03-02T02:45:29;99046.13;;;7.40
54026;BMP280;74404;50.662;3.398;2024-03-02T02:47:55;99054.03;;;7.40
54026;BMP280;74404;50.662;3.398;2024-03-02T02:50:21;99044.41;;;7.35
54026;BMP280;74404;50.662;3.398;2024-03-02T02:52:46;99037.28;;;7.36
54026;BMP280;74404;50.662;3.398;2024-03-02T02:55:13;99036.19;;;7.37
54026;BMP280;74404;50.662;3.398;2024-03-02T02:57:41;99035.69;;;7.35
54026;BMP280;74404;50.662;3.398;2024-03-02T03:00:09;99024.38;;;7.34
54026;BMP280;74404;50.662;3.398;2024-03-02T03:02:42;99028.09;;;7.33
54026;BMP280;74404;50.662;3.398;2024-03-02T03:05:09;99026.53;;;7.32
54026;BMP280;74404;50.662;3.398;2024-03-02T03:07:35;99029.78;;;7.29
54026;BMP280;74404;50.662;3.398;2024-03-02T03:10:02;99023.78;;;7.29
54026;BMP280;74404;50.662;3.398;2024-03-02T03:12:29;99017.69;;;7.28
54026;BMP280;74404;50.662;3.398;2024-03-02T03:14:55;99024.06;;;7.27
54026;BMP280;74404;50.662;3.398;2024-03-02T03:17:21;99031.69;;;7.29
54026;BMP280;74404;50.662;3.398;2024-03-02T03:19:46;99033.19;;;7.30
54026;BMP280;74404;50.662;3.398;2024-03-02T03:22:12;99017.06;;;7.22
54026;BMP280;74404;50.662;3.398;2024-03-02T03:24:38;99031.19;;;7.27
54026;BMP280;74404;50.662;3.398;2024-03-02T03:27:04;99012.72;;;7.27
54026;BMP280;74404;50.662;3.398;2024-03-02T03:29:29;99004.16;;;7.21
54026;BMP280;74404;50.662;3.398;2024-03-02T03:31:55;99006.66;;;7.26
54026;BMP280;74404;50.662;3.398;2024-03-02T03:34:20;99016.44;;;7.26
54026;BMP280;74404;50.662;3.398;2024-03-02T03:36:46;99005.41;;;7.23
54026;BMP280;74404;50.662;3.398;2024-03-02T03:39:11;99009.59;;;7.25
54026;BMP280;74404;50.662;3.398;2024-03-02T03:41:37;99004.63;;;7.23
54026;BMP280;74404;50.662;3.398;2024-03-02T03:44:02;99005.72;;;7.22
54026;BMP280;74404;50.662;3.398;2024-03-02T03:46:29;99004.16;;;7.21
54026;BMP280;74404;50.662;3.398;2024-03-02T03:48:54;99010.81;;;7.18
54026;BMP280;74404;50.662;3.398;2024-03-02T03:51:21;99017.94;;;7.18
54026;BMP280;74404;50.662;3.398;2024-03-02T03:53:48;99013.00;;;7.16
54026;BMP280;74404;50.662;3.398;2024-03-02T03:56:14;99015.78;;;7.20
54026;BMP280;74404;50.662;3.398;2024-03-02T03:58:39;99013.44;;;7.18
54026;BMP280;74404;50.662;3.398;2024-03-02T04:01:04;99018.56;;;7.15
54026;BMP280;74404;50.662;3.398;2024-03-02T04:03:30;99019.53;;;7.19
54026;BMP280;74404;50.662;3.398;2024-03-02T04:05:56;99017.50;;;7.16
54026;BMP280;74404;50.662;3.398;2024-03-02T04:08:21;99027.72;;;7.17
54026;BMP280;74404;50.662;3.398;2024-03-02T04:10:47;99032.53;;;7.15
54026;BMP280;74404;50.662;3.398;2024-03-02T04:13:12;99035.97;;;7.16
54026;BMP280;74404;50.662;3.398;2024-03-02T04:15:38;99038.16;;;7.14
54026;BMP280;74404;50.662;3.398;2024-03-02T04:18:03;99031.78;;;7.15
54026;BMP280;74404;50.662;3.398;2024-03-02T04:20:29;99044.50;;;7.13
54026;BMP280;74404;50.662;3.398;2024-03-02T04:22:55;99047.59;;;7.15
54026;BMP280;74404;50.662;3.398;2024-03-02T04:25:21;99051.34;;;7.14
54026;BMP280;74404;50.662;3.398;2024-03-02T04:27:46;99048.50;;;7.10
54026;BMP280;74404;50.662;3.398;2024-03-02T04:30:12;99051.13;;;7.10
54026;BMP280;74404;50.662;3.398;2024-03-02T04:32:38;99042.75;;;7.08
54026;BMP280;74404;50.662;3.398;2024-03-02T04:35:05;99051.44;;;7.09
54026;BMP280;74404;50.662;3.398;2024-03-02T04:37:34;99042.44;;;7.10
54026;BMP280;74404;50.662;3.398;2024-03-02T04:39:59;99046.44;;;7.07
54026;BMP280;74404;50.662;3.398;2024-03-02T04:42:25;99052.06;;;7.06
54026;BMP280;74404;50.662;3.398;2024-03-02T04:44:50;99051.25;;;7.05
54026;BMP280;74404;50.662;3.398;2024-03-02T04:47:15;99048.63;;;7.05
54026;BMP280;74404;50.662;3.398;2024-03-02T04:49:41;99055.03;;;7.04
54026;BMP280;74404;50.662;3.398;2024-03-02T04:52:06;99056.38;;;7.01
54026;BMP280;74404;50.662;3.398;2024-03-02T04:54:32;99055.31;;;7.02
54026;BMP280;74404;50.662;3.398;2024-03-02T04:56:57;99066.16;;;7.01
54026;BMP280;74404;50.662;3.398;2024-03-02T04:59:23;99066.63;;;7.03
54026;BMP280;74404;50.662;3.398;2024-03-02T05:01:49;99064.59;;;7.00
54026;BMP280;74404;50.662;3.398;2024-03-02T05:04:14;99065.38;;;7.00
54026;BMP280;74404;50.662;3.398;2024-03-02T05:06:40;99060.38;;;6.99
54026;BMP280;74404;50.662;3.398;2024-03-02T05:09:07;99071.25;;;6.97
54026;BMP280;74404;50.662;3.398;2024-03-02T05:11:32;99071.75;;;6.99
54026;BMP280;74404;50.662;3.398;2024-03-02T05:14:07;99067.81;;;6.97
54026;BMP280;74404;50.662;3.398;2024-03-02T05:16:33;99060.22;;;6.95
54026;BMP280;74404;50.662;3.398;2024-03-02T05:18:59;99070.16;;;6.98
54026;BMP280;74404;50.662;3.398;2024-03-02T05:21:25;99070.75;;;6.95
54026;BMP280;74404;50.662;3.398;2024-03-02T05:23:50;99076.63;;;6.92
54026;BMP280;74404;50.662;3.398;2024-03-02T05:26:15;99068.91;;;6.96
54026;BMP280;74404;50.662;3.398;2024-03-02T05:28:41;99071.84;;;6.94
54026;BMP280;74404;50.662;3.398;2024-03-02T05:31:10;99074.50;;;6.94
54026;BMP280;74404;50.662;3.398;2024-03-02T05:33:38;99074.00;;;6.92
54026;BMP280;74404;50.662;3.398;2024-03-02T05:36:04;99078.66;;;6.95
54026;BMP280;74404;50.662;3.398;2024-03-02T05:38:29;99081.59;;;6.94
54026;BMP280;74404;50.662;3.398;2024-03-02T05:40:55;99081.59;;;6.94
54026;BMP280;74404;50.662;3.398;2024-03-02T05:43:20;99077.75;;;6.91
54026;BMP280;74404;50.662;3.398;2024-03-02T05:45:46;99077.75;;;6.91
54026;BMP280;74404;50.662;3.398;2024-03-02T05:48:11;99082.22;;;6.91
54026;BMP280;74404;50.662;3.398;2024-03-02T05:50:37;99080.69;;;6.90
54026;BMP280;74404;50.662;3.398;2024-03-02T05:53:02;99088.13;;;6.88
54026;BMP280;74404;50.662;3.398;2024-03-02T05:55:28;99071.78;;;6.86
54026;BMP280;74404;50.662;3.398;2024-03-02T05:57:53;99089.97;;;6.87
54026;BMP280;74404;50.662;3.398;2024-03-02T06:00:41;99084.69;;;6.87
54026;BMP280;74404;50.662;3.398;2024-03-02T06:03:06;99076.31;;;6.85
54026;BMP280;74404;50.662;3.398;2024-03-02T06:05:33;99073.38;;;6.87
54026;BMP280;74404;50.662;3.398;2024-03-02T06:07:58;99075.53;;;6.84
54026;BMP280;74404;50.662;3.398;2024-03-02T06:10:23;99078.94;;;6.85
54026;BMP280;74404;50.662;3.398;2024-03-02T06:12:49;99072.72;;;6.81
54026;BMP280;74404;50.662;3.398;2024-03-02T06:15:14;99071.03;;;6.85
54026;BMP280;74404;50.662;3.398;2024-03-02T06:17:40;99075.34;;;6.81
54026;BMP280;74404;50.662;3.398;2024-03-02T06:20:06;99072.72;;;6.81
54026;BMP280;74404;50.662;3.398;2024-03-02T06:22:33;99077.47;;;6.79
54026;BMP280;74404;50.662;3.398;2024-03-02T06:24:58;99089.59;;;6.80
54026;BMP280;74404;50.662;3.398;2024-03-02T06:27:24;99085.38;;;6.79
54026;BMP280;74404;50.662;3.398;2024-03-02T06:29:49;99097.06;;;6.78
54026;BMP280;74404;50.662;3.398;2024-03-02T06:32:16;99096.25;;;6.77
54026;BMP280;74404;50.662;3.398;2024-03-02T06:34:42;99093.16;;;6.75
54026;BMP280;74404;50.662;3.398;2024-03-02T06:37:07;99095.78;;;6.75
54026;BMP280;74404;50.662;3.398;2024-03-02T06:39:33;99096.25;;;6.77
54026;BMP280;74404;50.662;3.398;2024-03-02T06:42:00;99088.03;;;6.79
54026;BMP280;74404;50.662;3.398;2024-03-02T06:44:25;99093.44;;;6.74
54026;BMP280;74404;50.662;3.398;2024-03-02T06:46:51;99099.19;;;6.76
54026;BMP280;74404;50.662;3.398;2024-03-02T06:49:16;99096.09;;;6.74
54026;BMP280;74404;50.662;3.398;2024-03-02T06:51:44;99085.53;;;6.74
54026;BMP280;74404;50.662;3.398;2024-03-02T06:54:09;99091.59;;;6.74
54026;BMP280;74404;50.662;3.398;2024-03-02T06:56:34;99088.47;;;6.72
54026;BMP280;74404;50.662;3.398;2024-03-02T06:59:00;99085.66;;;6.69
54026;BMP280;74404;50.662;3.398;2024-03-02T07:01:25;99093.56;;;6.69
54026;BMP280;74404;50.662;3.398;2024-03-02T07:03:51;99087.38;;;6.64
54026;BMP280;74404;50.662;3.398;2024-03-02T07:06:17;99092.31;;;6.66
54026;BMP280;74404;50.662;3.398;2024-03-02T07:08:42;99096.50;;;6.67
54026;BMP280;74404;50.662;3.398;2024-03-02T07:11:08;99090.44;;;6.67
54026;BMP280;74404;50.662;3.398;2024-03-02T07:13:34;99089.66;;;6.66
54026;BMP280;74404;50.662;3.398;2024-03-02T07:16:00;99094.63;;;6.68
54026;BMP280;74404;50.662;3.398;2024-03-02T07:18:32;99083.31;;;6.67
54026;BMP280;74404;50.662;3.398;2024-03-02T07:20:59;99072.00;;;6.67
54026;BMP280;74404;50.662;3.398;2024-03-02T07:23:26;99080.22;;;6.65
54026;BMP280;74404;50.662;3.398;2024-03-02T07:25:56;99079.44;;;6.64
54026;BMP280;74404;50.662;3.398;2024-03-02T07:28:25;99075.41;;;6.67
54026;BMP280;74404;50.662;3.398;2024-03-02T07:31:00;99072.00;;;6.67
54026;BMP280;74404;50.662;3.398;2024-03-02T07:33:26;99074.94;;;6.65
54026;BMP280;74404;50.662;3.398;2024-03-02T07:35:52;99079.91;;;6.67
54026;BMP280;74404;50.662;3.398;2024-03-02T07:38:17;99071.69;;;6.68
54026;BMP280;74404;50.662;3.398;2024-03-02T07:40:43;99064.84;;;6.67
54026;BMP280;74404;50.662;3.398;2024-03-02T07:43:09;99069.34;;;6.67
54026;BMP280;74404;50.662;3.398;2024-03-02T07:45:34;99067.50;;;6.67
54026;BMP280;74404;50.662;3.398;2024-03-02T07:48:03;99086.25;;;6.65
54026;BMP280;74404;50.662;3.398;2024-03-02T07:50:31;99082.28;;;6.99
54026;BMP280;74404;50.662;3.398;2024-03-02T07:53:00;99087.25;;;6.78
54026;BMP280;74404;50.662;3.398;2024-03-02T07:55:25;99087.69;;;6.72
54026;BMP280;74404;50.662;3.398;2024-03-02T07:57:51;99085.06;;;6.72
54026;BMP280;74404;50.662;3.398;2024-03-02T08:00:17;99080.84;;;6.71
54026;BMP280;74404;50.662;3.398;2024-03-02T08:02:42;99077.91;;;6.72
54026;BMP280;74404;50.662;3.398;2024-03-02T08:05:08;99086.94;;;6.71
54026;BMP280;74404;50.662;3.398;2024-03-02T08:07:34;99091.69;;;6.69
54026;BMP280;74404;50.662;3.398;2024-03-02T08:09:59;99106.91;;;6.72
54026;BMP280;74404;50.662;3.398;2024-03-02T08:12:25;99115.00;;;6.76
54026;BMP280;74404;50.662;3.398;2024-03-02T08:14:50;99116.09;;;6.75
54026;BMP280;74404;50.662;3.398;2024-03-02T08:17:16;99118.28;;;6.73
54026;BMP280;74404;50.662;3.398;2024-03-02T08:19:42;99115.00;;;6.76
54026;BMP280;74404;50.662;3.398;2024-03-02T08:22:07;99106.63;;;6.74
54026;BMP280;74404;50.662;3.398;2024-03-02T08:24:33;99108.19;;;6.75
54026;BMP280;74404;50.662;3.398;2024-03-02T08:27:02;99111.47;;;6.80
54026;BMP280;74404;50.662;3.398;2024-03-02T08:29:27;99108.53;;;6.82
54026;BMP280;74404;50.662;3.398;2024-03-02T08:31:54;99107.75;;;6.81
54026;BMP280;74404;50.662;3.398;2024-03-02T08:34:19;99088.41;;;6.86
54026;BMP280;74404;50.662;3.398;2024-03-02T08:36:46;99098.47;;;6.84
54026;BMP280;74404;50.662;3.398;2024-03-02T08:39:12;99106.06;;;6.86
54026;BMP280;74404;50.662;3.398;2024-03-02T08:41:47;99110.00;;;6.88
54026;BMP280;74404;50.662;3.398;2024-03-02T08:44:13;99110.00;;;6.88
54026;BMP280;74404;50.662;3.398;2024-03-02T08:46:39;99112.31;;;6.90
54026;BMP280;74404;50.662;3.398;2024-03-02T08:49:05;99111.22;;;6.91
54026;BMP280;74404;50.662;3.398;2024-03-02T08:51:31;99118.66;;;6.89
54026;BMP280;74404;50.662;3.398;2024-03-02T08:53:57;99118.06;;;6.92
54026;BMP280;74404;50.662;3.398;2024-03-02T08:56:23;99109.06;;;6.93
54026;BMP280;74404;50.662;3.398;2024-03-02T08:58:50;99104.13;;;6.91
54026;BMP280;74404;50.662;3.398;2024-03-02T09:01:16;99115.13;;;6.93
54026;BMP280;74404;50.662;3.398;2024-03-02T09:03:42;99111.41;;;6.94
54026;BMP280;74404;50.662;3.398;2024-03-02T09:06:10;99115.28;;;6.97
54026;BMP280;74404;50.662;3.398;2024-03-02T09:08:35;99107.09;;;6.98
54026;BMP280;74404;50.662;3.398;2024-03-02T09:11:02;99107.09;;;6.98
54026;BMP280;74404;50.662;3.398;2024-03-02T09:13:28;99111.28;;;6.99
54026;BMP280;74404;50.662;3.398;2024-03-02T09:15:54;99109.91;;;7.02
54026;BMP280;74404;50.662;3.398;2024-03-02T09:18:20;99107.78;;;7.04
54026;BMP280;74404;50.662;3.398;2024-03-02T09:20:45;99111.16;;;7.04
54026;BMP280;74404;50.662;3.398;2024-03-02T09:23:11;99100.00;;;7.08
54026;BMP280;74404;50.662;3.398;2024-03-02T09:25:36;99095.97;;;7.10
54026;BMP280;74404;50.662;3.398;2024-03-02T09:28:02;99089.63;;;7.11
54026;BMP280;74404;50.662;3.398;2024-03-02T09:30:28;99101.94;;;7.16
54026;BMP280;74404;50.662;3.398;2024-03-02T09:32:54;99091.53;;;7.19
54026;BMP280;74404;50.662;3.398;2024-03-02T09:35:20;99094.03;;;7.25
54026;BMP280;74404;50.662;3.398;2024-03-02T09:37:45;99098.72;;;7.28
54026;BMP280;74404;50.662;3.398;2024-03-02T09:40:11;99100.28;;;7.29
54026;BMP280;74404;50.662;3.398;2024-03-02T09:42:38;99092.81;;;7.31
54026;BMP280;74404;50.662;3.398;2024-03-02T09:45:05;99093.84;;;7.52
54026;BMP280;74404;50.662;3.398;2024-03-02T09:47:31;99090.91;;;7.62
54026;BMP280;74404;50.662;3.398;2024-03-02T09:49:56;99090.09;;;7.53
54026;BMP280;74404;50.662;3.398;2024-03-02T09:52:25;99085.16;;;7.52
54026;BMP280;74404;50.662;3.398;2024-03-02T09:54:51;99087.00;;;7.51
54026;BMP280;74404;50.662;3.398;2024-03-02T09:57:16;99078.31;;;7.51
54026;BMP280;74404;50.662;3.398;2024-03-02T09:59:42;99072.25;;;7.50
54026;BMP280;74404;50.662;3.398;2024-03-02T10:02:08;99085.59;;;7.54
54026;BMP280;74404;50.662;3.398;2024-03-02T10:04:33;99080.78;;;7.56
54026;BMP280;74404;50.662;3.398;2024-03-02T10:07:15;99083.13;;;7.57
54026;BMP280;74404;50.662;3.398;2024-03-02T10:09:48;99028.00;;;7.56
54026;BMP280;74404;50.662;3.398;2024-03-02T10:12:17;99073.34;;;7.58
54026;BMP280;74404;50.662;3.398;2024-03-02T10:14:44;99067.75;;;7.59
54026;BMP280;74404;50.662;3.398;2024-03-02T10:17:11;99056.59;;;7.62
54026;BMP280;74404;50.662;3.398;2024-03-02T10:19:38;99047.91;;;7.62
54026;BMP280;74404;50.662;3.398;2024-03-02T10:22:09;99053.66;;;7.64
54026;BMP280;74404;50.662;3.398;2024-03-02T10:24:42;99055.53;;;7.64
54026;BMP280;74404;50.662;3.398;2024-03-02T10:27:23;99061.72;;;7.68
54026;BMP280;74404;50.662;3.398;2024-03-02T10:29:49;99047.75;;;7.67
54026;BMP280;74404;50.662;3.398;2024-03-02T10:32:15;99053.19;;;7.71
54026;BMP280;74404;50.662;3.398;2024-03-02T10:34:42;99063.75;;;7.71
54026;BMP280;74404;50.662;3.398;2024-03-02T10:37:08;99055.81;;;7.71
54026;BMP280;74404;50.662;3.398;2024-03-02T10:39:36;99051.81;;;7.73
54026;BMP280;74404;50.662;3.398;2024-03-02T10:42:05;99042.03;;;7.74
54026;BMP280;74404;50.662;3.398;2024-03-02T10:44:31;99050.72;;;7.74
54026;BMP280;74404;50.662;3.398;2024-03-02T10:47:00;99043.25;;;7.76
54026;BMP280;74404;50.662;3.398;2024-03-02T10:49:27;99044.34;;;7.75
54026;BMP280;74404;50.662;3.398;2024-03-02T10:51:54;99052.72;;;7.77
54026;BMP280;74404;50.662;3.398;2024-03-02T10:54:19;99046.34;;;7.78
54026;BMP280;74404;50.662;3.398;2024-03-02T10:56:52;99055.06;;;7.79
54026;BMP280;74404;50.662;3.398;2024-03-02T10:59:33;99055.22;;;7.82
54026;BMP280;74404;50.662;3.398;2024-03-02T11:02:00;99060.50;;;7.82
54026;BMP280;74404;50.662;3.398;2024-03-02T11:04:27;99064.25;;;7.81
54026;BMP280;74404;50.662;3.398;2024-03-02T11:06:58;99055.22;;;7.82
54026;BMP280;74404;50.662;3.398;2024-03-02T11:09:27;99061.59;;;7.81
54026;BMP280;74404;50.662;3.398;2024-03-02T11:12:03;99064.41;;;7.85
54026;BMP280;74404;50.662;3.398;2024-03-02T11:14:30;99064.09;;;7.87
54026;BMP280;74404;50.662;3.398;2024-03-02T11:17:00;99056.19;;;7.87
54026;BMP280;74404;50.662;3.398;2024-03-02T11:19:27;99060.81;;;7.90
54026;BMP280;74404;50.662;3.398;2024-03-02T11:21:53;99051.97;;;7.86
54026;BMP280;74404;50.662;3.398;2024-03-02T11:26:48;99044.97;;;7.90
54026;BMP280;74404;50.662;3.398;2024-03-02T11:32:01;99037.53;;;7.92
54026;BMP280;74404;50.662;3.398;2024-03-02T11:34:31;99062.06;;;7.92
54026;BMP280;74404;50.662;3.398;2024-03-02T11:36:57;99042.50;;;7.93
54026;BMP280;74404;50.662;3.398;2024-03-02T11:39:25;99045.31;;;7.97
54026;BMP280;74404;50.662;3.398;2024-03-02T11:41:51;99037.03;;;7.98
54026;BMP280;74404;50.662;3.398;2024-03-02T11:44:16;99037.81;;;7.99
54026;BMP280;74404;50.662;3.398;2024-03-02T11:46:45;99037.81;;;7.99
54026;BMP280;74404;50.662;3.398;2024-03-02T11:49:14;99036.31;;;7.98
54026;BMP280;74404;50.662;3.398;2024-03-02T11:51:53;99037.50;;;8.00
54026;BMP280;74404;50.662;3.398;2024-03-02T11:54:26;99041.25;;;7.99
54026;BMP280;74404;50.662;3.398;2024-03-02T11:56:54;99041.41;;;8.12
54026;BMP280;74404;50.662;3.398;2024-03-02T11:59:20;99032.84;;;8.15
54026;BMP280;74404;50.662;3.398;2024-03-02T12:01:47;99026.19;;;8.09
54026;BMP280;74404;50.662;3.398;2024-03-02T12:04:13;99032.25;;;8.09
54026;BMP280;74404;50.662;3.398;2024-03-02T12:06:38;99017.50;;;8.08
54026;BMP280;74404;50.662;3.398;2024-03-02T12:09:04;99014.06;;;8.08
54026;BMP280;74404;50.662;3.398;2024-03-02T12:11:30;99006.59;;;8.10
54026;BMP280;74404;50.662;3.398;2024-03-02T12:13:55;98996.66;;;8.07
54026;BMP280;74404;50.662;3.398;2024-03-02T12:16:25;98999.75;;;8.09
54026;BMP280;74404;50.662;3.398;2024-03-02T12:18:50;98997.56;;;8.11
54026;BMP280;74404;50.662;3.398;2024-03-02T12:21:16;98985.44;;;8.10
54026;BMP280;74404;50.662;3.398;2024-03-02T12:23:42;98981.56;;;8.07
54026;BMP280;74404;50.662;3.398;2024-03-02T12:26:07;98979.72;;;8.08
54026;BMP280;74404;50.662;3.398;2024-03-02T12:28:33;98976.41;;;8.11
54026;BMP280;74404;50.662;3.398;2024-03-02T12:31:01;98981.41;;;8.12
54026;BMP280;74404;50.662;3.398;2024-03-02T12:33:27;98984.03;;;8.12
54026;BMP280;74404;50.662;3.398;2024-03-02T12:35:54;98984.03;;;8.12
54026;BMP280;74404;50.662;3.398;2024-03-02T12:38:19;98983.28;;;8.12
54026;BMP280;74404;50.662;3.398;2024-03-02T12:40:48;98982.19;;;8.13
54026;BMP280;74404;50.662;3.398;2024-03-02T12:43:14;98972.84;;;8.15
54026;BMP280;74404;50.662;3.398;2024-03-02T12:45:39;98972.84;;;8.15
54026;BMP280;74404;50.662;3.398;2024-03-02T12:48:05;98971.31;;;8.14
54026;BMP280;74404;50.662;3.398;2024-03-02T12:50:31;98975.19;;;8.17
54026;BMP280;74404;50.662;3.398;2024-03-02T12:52:56;98973.94;;;8.23
54026;BMP280;74404;50.662;3.398;2024-03-02T12:55:22;98965.53;;;8.30
54026;BMP280;74404;50.662;3.398;2024-03-02T12:57:52;98973.28;;;8.35
54026;BMP280;74404;50.662;3.398;2024-03-02T13:00:19;98963.31;;;8.40
54026;BMP280;74404;50.662;3.398;2024-03-02T13:02:46;98973.09;;;8.49
54026;BMP280;74404;50.662;3.398;2024-03-02T13:05:12;98968.25;;;8.59
54026;BMP280;74404;50.662;3.398;2024-03-02T13:07:39;98970.75;;;8.56
54026;BMP280;74404;50.662;3.398;2024-03-02T13:10:06;98965.16;;;8.57
54026;BMP280;74404;50.662;3.398;2024-03-02T13:12:35;98961.56;;;8.62
54026;BMP280;74404;50.662;3.398;2024-03-02T13:15:02;98957.75;;;8.72
54026;BMP280;74404;50.662;3.398;2024-03-02T13:17:29;98948.69;;;8.81
54026;BMP280;74404;50.662;3.398;2024-03-02T13:19:58;98951.34;;;8.81
54026;BMP280;74404;50.662;3.398;2024-03-02T13:22:27;98951.78;;;8.92
54026;BMP280;74404;50.662;3.398;2024-03-02T13:24:53;98958.94;;;9.13
54026;BMP280;74404;50.662;3.398;2024-03-02T13:27:22;98959.91;;;9.38
54026;BMP280;74404;50.662;3.398;2024-03-02T13:29:49;98958.34;;;9.91
54026;BMP280;74404;50.662;3.398;2024-03-02T13:32:15;98948.94;;;10.27
54026;BMP280;74404;50.662;3.398;2024-03-02T13:34:42;98951.94;;;10.63
54026;BMP280;74404;50.662;3.398;2024-03-02T13:37:08;98943.97;;;10.87
54026;BMP280;74404;50.662;3.398;2024-03-02T13:39:34;98950.69;;;11.09
54026;BMP280;74404;50.662;3.398;2024-03-02T13:42:07;98957.81;;;11.33
54026;BMP280;74404;50.662;3.398;2024-03-02T13:44:34;98949.28;;;11.68
54026;BMP280;74404;50.662;3.398;2024-03-02T13:47:00;98947.72;;;11.95
54026;BMP280;74404;50.662;3.398;2024-03-02T13:49:26;98944.28;;;12.11
54026;BMP280;74404;50.662;3.398;2024-03-02T13:52:00;98946.00;;;12.03
54026;BMP280;74404;50.662;3.398;2024-03-02T13:54:28;98933.75;;;12.14
54026;BMP280;74404;50.662;3.398;2024-03-02T13:56:56;98932.63;;;12.31
54026;BMP280;74404;50.662;3.398;2024-03-02T13:59:24;98926.84;;;12.45
54026;BMP280;74404;50.662;3.398;2024-03-02T14:01:50;98936.94;;;12.55
54026;BMP280;74404;50.662;3.398;2024-03-02T14:04:15;98919.91;;;12.76
54026;BMP280;74404;50.662;3.398;2024-03-02T14:06:43;98911.91;;;12.92
54026;BMP280;74404;50.662;3.398;2024-03-02T14:09:08;98916.50;;;12.95
54026;BMP280;74404;50.662;3.398;2024-03-02T14:11:34;98912.09;;;13.22
54026;BMP280;74404;50.662;3.398;2024-03-02T14:13:59;98917.56;;;13.48
54026;BMP280;74404;50.662;3.398;2024-03-02T14:16:25;98914.38;;;13.85
54026;BMP280;74404;50.662;3.398;2024-03-02T14:18:50;98911.47;;;13.94
54026;BMP280;74404;50.662;3.398;2024-03-02T14:21:16;98904.63;;;13.97
54026;BMP280;74404;50.662;3.398;2024-03-02T14:23:41;98907.78;;;13.79
54026;BMP280;74404;50.662;3.398;2024-03-02T14:26:06;98900.53;;;14.29
54026;BMP280;74404;50.662;3.398;2024-03-02T14:28:32;98900.63;;;14.33